Time;durP1;ratioP1;P1;durP2;ratioP2;P2;SDS_P1;SDS_P2;PMS_P1;PMS_P2;Temp;Humidity;BMP_temperature;BMP_pressure;BME280_temperature;BME280_humidity;BME280_pressure;Samples;Min_cycle;Max_cycle;Signal;HPM_P1;HPM_P2
2023/03/07 00:02:22;;;;;;;;;;;;;;;;;;5053528;28;20373;-44
2023/03/07 00:04:48;;;;;;;;;;;;;;;;;;5054025;28;19991;-42
2023/03/07 00:07:14;;;;;;;;;;;;;;;;;;5053431;28;19995;-44
2023/03/07 00:09:40;;;;;;;;;;;;;;;;;;5053952;28;19909;-42
2023/03/07 00:12:06;;;;;;;;;;;;;;;;;;5052965;28;19932;-42
2023/03/07 00:14:32;;;;;;;;;;;;;;;;;;5052895;28;19997;-43
2023/03/07 00:16:58;;;;;;;;;;;;;;;;;;5049154;28;19913;-42
2023/03/07 00:19:24;;;;;;;;;;;;;;;;;;5068715;28;19911;-42
2023/03/07 00:21:49;;;;;;;;;;;;;;;;;;5074243;28;19947;-44
2023/03/07 00:24:15;;;;;;;;;;;;;;;;;;5072469;28;20364;-42
2023/03/07 00:26:41;;;;;;;;;;;;;;;;;;5074087;28;19904;-43
2023/03/07 00:29:08;;;;;;;;;;;;;;;;;;5066547;28;20436;-43
2023/03/07 00:31:34;;;;;;;;;;;;;;;;;;5053153;28;19913;-47
2023/03/07 00:34:00;;;;;;;;;;;;;;;;;;5047777;28;19963;-42
2023/03/07 00:36:26;;;;;;;;;;;;;;;;;;5052491;28;19909;-43
2023/03/07 00:38:51;;;;;;;;;;;;;;;;;;5053915;28;19912;-42
2023/03/07 00:41:17;;;;;;;;;;;;;;;;;;5052620;28;19951;-42
2023/03/07 00:43:45;;;;;;;;;;;;;;;;;;5053833;28;19966;-43
2023/03/07 00:46:11;;;;;;;;;;;;;;;;;;5052491;28;19905;-43
2023/03/07 00:48:37;;;;;;;;;;;;;;;;;;5072977;28;19939;-43
2023/03/07 00:51:03;;;;;;;;;;;;;;;;;;5071581;28;20014;-43
2023/03/07 00:53:29;;;;;;;;;;;;;;;;;;5092932;28;19978;-43
2023/03/07 00:55:55;;;;;;;;;;;;;;;;;;5093408;28;19904;-43
2023/03/07 00:58:21;;;;;;;;;;;;;;;;;;5092644;28;19908;-43
2023/03/07 01:00:46;;;;;;;;;;;;;;;;;;5093396;28;20393;-43
2023/03/07 01:03:12;;;;;;;;;;;;;;;;;;5092843;28;19904;-44
2023/03/07 01:05:38;;;;;;;;;;;;;;;;;;5093086;28;20369;-44
2023/03/07 01:08:04;;;;;;;;;;;;;;;;;;5069227;28;19915;-44
2023/03/07 01:10:32;;;;;;;;;;;;;;;;;;5071581;28;20514;-42
2023/03/07 01:12:57;;;;;;;;;;;;;;;;;;5073094;28;19915;-42
2023/03/07 01:15:23;;;;;;;;;;;;;;;;;;5071664;28;19904;-42
2023/03/07 01:17:49;;;;;;;;;;;;;;;;;;5075968;28;19915;-42
2023/03/07 01:20:15;;;;;;;;;;;;;;;;;;5092032;28;20419;-43
2023/03/07 01:22:41;;;;;;;;;;;;;;;;;;5092761;28;19908;-43
2023/03/07 01:25:07;;;;;;;;;;;;;;;;;;5078770;28;19916;-42
2023/03/07 01:27:33;;;;;;;;;;;;;;;;;;5072121;28;19908;-44
2023/03/07 01:29:59;;;;;;;;;;;;;;;;;;5072241;28;19912;-42
2023/03/07 01:32:24;;;;;;;;;;;;;;;;;;5072069;28;19915;-43
2023/03/07 01:34:50;;;;;;;;;;;;;;;;;;5072098;28;19908;-45
2023/03/07 01:37:17;;;;;;;;;;;;;;;;;;5072309;28;19911;-42
2023/03/07 01:39:43;;;;;;;;;;;;;;;;;;5072179;28;19904;-42
2023/03/07 01:42:09;;;;;;;;;;;;;;;;;;5065823;28;19905;-44
2023/03/07 01:44:35;;;;;;;;;;;;;;;;;;5071499;28;20002;-43
2023/03/07 01:47:01;;;;;;;;;;;;;;;;;;5071998;28;19958;-42
2023/03/07 01:49:27;;;;;;;;;;;;;;;;;;5071241;28;19914;-43
2023/03/07 01:51:53;;;;;;;;;;;;;;;;;;5072583;28;19908;-43
2023/03/07 01:54:18;;;;;;;;;;;;;;;;;;5071108;28;19909;-42
2023/03/07 01:56:44;;;;;;;;;;;;;;;;;;5070088;28;19957;-42
2023/03/07 01:59:10;;;;;;;;;;;;;;;;;;5069401;28;20011;-46
2023/03/07 02:01:36;;;;;;;;;;;;;;;;;;5071904;28;19911;-43
2023/03/07 02:04:02;;;;;;;;;;;;;;;;;;5072307;28;19943;-41
2023/03/07 02:06:29;;;;;;;;;;;;;;;;;;5071163;28;20816;-42
2023/03/07 02:08:55;;;;;;;;;;;;;;;;;;5072342;28;19950;-42
2023/03/07 02:11:21;;;;;;;;;;;;;;;;;;5070975;28;19916;-42
2023/03/07 02:13:47;;;;;;;;;;;;;;;;;;5069545;28;20385;-42
2023/03/07 02:16:13;;;;;;;;;;;;;;;;;;5067497;28;20363;-42
2023/03/07 02:18:39;;;;;;;;;;;;;;;;;;5082127;28;19904;-42
2023/03/07 02:21:08;;;;;;;;;;;;;;;;;;5092241;28;19904;-43
2023/03/07 02:23:34;;;;;;;;;;;;;;;;;;5091611;28;19904;-43
2023/03/07 02:25:59;;;;;;;;;;;;;;;;;;5091689;28;19904;-42
2023/03/07 02:28:25;;;;;;;;;;;;;;;;;;5089742;28;19904;-42
2023/03/07 02:30:51;;;;;;;;;;;;;;;;;;5066040;28;19920;-42
2023/03/07 02:33:17;;;;;;;;;;;;;;;;;;5071004;28;20428;-42
2023/03/07 02:35:43;;;;;;;;;;;;;;;;;;5073388;28;19911;-43
2023/03/07 02:38:09;;;;;;;;;;;;;;;;;;5075859;28;19966;-45
2023/03/07 02:40:35;;;;;;;;;;;;;;;;;;5074867;28;20384;-42
2023/03/07 02:43:03;;;;;;;;;;;;;;;;;;5075855;28;19985;-42
2023/03/07 02:45:28;;;;;;;;;;;;;;;;;;5074621;28;20486;-42
2023/03/07 02:47:54;;;;;;;;;;;;;;;;;;5075008;28;20030;-45
2023/03/07 02:50:20;;;;;;;;;;;;;;;;;;5094940;28;19935;-43
2023/03/07 02:52:46;;;;;;;;;;;;;;;;;;5096141;28;19961;-41
2023/03/07 02:55:12;;;;;;;;;;;;;;;;;;5094724;28;19994;-43
2023/03/07 02:57:38;;;;;;;;;;;;;;;;;;5096511;28;19904;-43
2023/03/07 03:00:06;;;;;;;;;;;;;;;;;;5095548;28;19903;-42
2023/03/07 03:02:32;;;;;;;;;;;;;;;;;;5094886;28;20462;-42
2023/03/07 03:04:58;;;;;;;;;;;;;;;;;;5070661;28;19912;-42
2023/03/07 03:07:24;;;;;;;;;;;;;;;;;;5074858;28;19956;-42
2023/03/07 03:09:49;;;;;;;;;;;;;;;;;;5074779;28;19909;-41
2023/03/07 03:12:15;;;;;;;;;;;;;;;;;;5074762;28;19908;-42
2023/03/07 03:14:41;;;;;;;;;;;;;;;;;;5074718;28;19970;-43
2023/03/07 03:17:07;;;;;;;;;;;;;;;;;;5075796;28;19904;-41
2023/03/07 03:19:33;;;;;;;;;;;;;;;;;;5076687;28;19916;-42
2023/03/07 03:21:59;;;;;;;;;;;;;;;;;;5075045;28;19965;-41
2023/03/07 03:24:25;;;;;;;;;;;;;;;;;;5074076;28;20007;-44
2023/03/07 03:26:50;;;;;;;;;;;;;;;;;;5075594;28;19915;-42
2023/03/07 03:29:16;;;;;;;;;;;;;;;;;;5082659;28;19911;-42
2023/03/07 03:31:42;;;;;;;;;;;;;;;;;;5095232;28;20372;-42
2023/03/07 03:34:08;;;;;;;;;;;;;;;;;;5095172;28;19914;-45
2023/03/07 03:36:34;;;;;;;;;;;;;;;;;;5091604;28;19904;-42
2023/03/07 03:39:00;;;;;;;;;;;;;;;;;;5070503;28;19947;-42
2023/03/07 03:41:26;;;;;;;;;;;;;;;;;;5073551;28;19908;-42
2023/03/07 03:43:51;;;;;;;;;;;;;;;;;;5074963;28;20348;-42
2023/03/07 03:46:18;;;;;;;;;;;;;;;;;;5072933;28;19943;-42
2023/03/07 03:48:44;;;;;;;;;;;;;;;;;;5074741;28;19904;-42
2023/03/07 03:51:10;;;;;;;;;;;;;;;;;;5073825;28;20015;-43
2023/03/07 03:53:36;;;;;;;;;;;;;;;;;;5074480;28;20419;-42
2023/03/07 03:56:02;;;;;;;;;;;;;;;;;;5068029;28;19915;-42
2023/03/07 03:58:27;;;;;;;;;;;;;;;;;;5073706;28;19950;-43
2023/03/07 04:00:53;;;;;;;;;;;;;;;;;;5074327;28;20028;-43
2023/03/07 04:03:19;;;;;;;;;;;;;;;;;;5073908;28;19904;-41
2023/03/07 04:05:45;;;;;;;;;;;;;;;;;;5074098;28;20243;-42
2023/03/07 04:08:11;;;;;;;;;;;;;;;;;;5073840;28;20001;-44
2023/03/07 04:10:37;;;;;;;;;;;;;;;;;;5073778;28;19912;-42
2023/03/07 04:13:03;;;;;;;;;;;;;;;;;;5068242;28;19912;-42
2023/03/07 04:15:29;;;;;;;;;;;;;;;;;;5072863;28;20513;-43
2023/03/07 04:17:55;;;;;;;;;;;;;;;;;;5077649;28;19908;-41
2023/03/07 04:20:21;;;;;;;;;;;;;;;;;;5093301;28;19915;-42
2023/03/07 04:22:46;;;;;;;;;;;;;;;;;;5094477;28;19908;-42
2023/03/07 04:25:12;;;;;;;;;;;;;;;;;;5093182;28;19935;-43
2023/03/07 04:27:38;;;;;;;;;;;;;;;;;;5094414;28;19911;-43
2023/03/07 04:30:04;;;;;;;;;;;;;;;;;;5073019;28;19966;-43
2023/03/07 04:32:30;;;;;;;;;;;;;;;;;;5073205;28;19955;-42
2023/03/07 04:34:56;;;;;;;;;;;;;;;;;;5073212;28;19995;-42
2023/03/07 04:37:22;;;;;;;;;;;;;;;;;;5073164;28;19947;-42
2023/03/07 04:39:48;;;;;;;;;;;;;;;;;;5073216;28;19944;-42
2023/03/07 04:42:13;;;;;;;;;;;;;;;;;;5073109;28;19904;-42
2023/03/07 04:44:39;;;;;;;;;;;;;;;;;;5073292;28;19911;-43
2023/03/07 04:47:05;;;;;;;;;;;;;;;;;;5060783;28;20422;-42
2023/03/07 04:49:31;;;;;;;;;;;;;;;;;;5070538;28;19909;-42
2023/03/07 04:51:57;;;;;;;;;;;;;;;;;;5073663;28;19999;-43
2023/03/07 04:54:23;;;;;;;;;;;;;;;;;;5072701;28;19905;-42
2023/03/07 04:56:49;;;;;;;;;;;;;;;;;;5073421;28;20314;-44
2023/03/07 04:59:14;;;;;;;;;;;;;;;;;;5071714;28;19951;-42
2023/03/07 05:01:40;;;;;;;;;;;;;;;;;;5073491;28;20015;-43
2023/03/07 05:04:06;;;;;;;;;;;;;;;;;;5054686;28;19916;-42
2023/03/07 05:06:32;;;;;;;;;;;;;;;;;;5052162;28;20270;-43
2023/03/07 05:08:58;;;;;;;;;;;;;;;;;;5053383;28;19952;-42
2023/03/07 05:11:24;;;;;;;;;;;;;;;;;;5051808;28;19992;-42
2023/03/07 05:13:50;;;;;;;;;;;;;;;;;;5053261;28;19909;-42
2023/03/07 05:16:17;;;;;;;;;;;;;;;;;;5051840;28;19927;-42
2023/03/07 05:18:43;;;;;;;;;;;;;;;;;;5053230;28;19905;-42
2023/03/07 05:21:08;;;;;;;;;;;;;;;;;;5048266;28;19913;-45
2023/03/07 05:23:34;;;;;;;;;;;;;;;;;;5050313;28;19991;-41
2023/03/07 05:26:00;;;;;;;;;;;;;;;;;;5052532;28;20463;-42
2023/03/07 05:28:26;;;;;;;;;;;;;;;;;;5054024;28;19905;-42
2023/03/07 05:30:52;;;;;;;;;;;;;;;;;;5072340;28;19915;-42
2023/03/07 05:33:18;;;;;;;;;;;;;;;;;;5071864;28;19912;-42
2023/03/07 05:35:45;;;;;;;;;;;;;;;;;;5072369;28;19904;-42
2023/03/07 05:38:11;;;;;;;;;;;;;;;;;;5067773;28;20273;-43
2023/03/07 05:40:37;;;;;;;;;;;;;;;;;;5048528;28;19995;-42
2023/03/07 05:43:03;;;;;;;;;;;;;;;;;;5052456;28;20293;-43
2023/03/07 05:45:29;;;;;;;;;;;;;;;;;;5051457;28;19912;-42
2023/03/07 05:47:55;;;;;;;;;;;;;;;;;;5051963;28;19917;-42
2023/03/07 05:50:21;;;;;;;;;;;;;;;;;;5050736;28;20359;-42
2023/03/07 05:52:47;;;;;;;;;;;;;;;;;;5051228;28;20000;-43
2023/03/07 05:55:13;;;;;;;;;;;;;;;;;;5048849;28;19909;-43
2023/03/07 05:57:38;;;;;;;;;;;;;;;;;;5051301;28;19905;-42
2023/03/07 06:00:05;;;;;;;;;;;;;;;;;;5051430;28;19905;-43
2023/03/07 06:02:31;;;;;;;;;;;;;;;;;;5051297;28;19917;-42
2023/03/07 06:04:56;;;;;;;;;;;;;;;;;;5050959;28;19908;-42
2023/03/07 06:07:22;;;;;;;;;;;;;;;;;;5051196;28;19905;-44
2023/03/07 06:09:48;;;;;;;;;;;;;;;;;;5045106;28;19999;-42
2023/03/07 06:12:14;;;;;;;;;;;;;;;;;;5051593;28;20361;-42
2023/03/07 06:14:40;;;;;;;;;;;;;;;;;;5051814;28;19909;-43
2023/03/07 06:17:06;;;;;;;;;;;;;;;;;;5052341;28;19905;-42
2023/03/07 06:19:32;;;;;;;;;;;;;;;;;;5067993;28;19901;-42
2023/03/07 06:21:58;;;;;;;;;;;;;;;;;;5072219;28;19947;-42
2023/03/07 06:24:24;;;;;;;;;;;;;;;;;;5070521;28;19904;-41
2023/03/07 06:26:50;;;;;;;;;;;;;;;;;;5072239;28;19908;-43
2023/03/07 06:29:16;;;;;;;;;;;;;;;;;;5052912;28;19908;-44
2023/03/07 06:31:42;;;;;;;;;;;;;;;;;;5045460;28;19951;-42
2023/03/07 06:34:08;;;;;;;;;;;;;;;;;;5051820;28;19954;-42
2023/03/07 06:36:34;;;;;;;;;;;;;;;;;;5051003;28;19963;-42
2023/03/07 06:39:00;;;;;;;;;;;;;;;;;;5052098;28;19905;-45
2023/03/07 06:41:25;;;;;;;;;;;;;;;;;;5050826;28;19912;-42
2023/03/07 06:43:51;;;;;;;;;;;;;;;;;;5052314;28;19905;-42
2023/03/07 06:46:19;;;;;;;;;;;;;;;;;;5050048;28;20274;-44
2023/03/07 06:48:45;;;;;;;;;;;;;;;;;;5053483;28;20321;-42
2023/03/07 06:51:11;;;;;;;;;;;;;;;;;;5071077;28;20004;-45
2023/03/07 06:53:38;;;;;;;;;;;;;;;;;;5053603;28;19908;-43
2023/03/07 06:56:03;;;;;;;;;;;;;;;;;;5055591;28;19916;-43
2023/03/07 06:58:29;;;;;;;;;;;;;;;;;;5050556;28;19905;-42
2023/03/07 07:00:55;;;;;;;;;;;;;;;;;;5051078;28;19909;-42
2023/03/07 07:03:21;;;;;;;;;;;;;;;;;;5032880;28;19936;-42
2023/03/07 07:05:47;;;;;;;;;;;;;;;;;;5046311;28;20263;-42
2023/03/07 07:08:13;;;;;;;;;;;;;;;;;;5043240;28;19905;-42
2023/03/07 07:10:39;;;;;;;;;;;;;;;;;;5050905;28;19916;-42
2023/03/07 07:13:05;;;;;;;;;;;;;;;;;;5050281;28;20312;-42
2023/03/07 07:15:30;;;;;;;;;;;;;;;;;;5049773;28;19909;-44
2023/03/07 07:17:56;;;;;;;;;;;;;;;;;;5051360;28;20386;-46
2023/03/07 07:20:22;;;;;;;;;;;;;;;;;;5044296;28;19940;-42
2023/03/07 07:22:48;;;;;;;;;;;;;;;;;;5054409;28;19905;-43
2023/03/07 07:25:14;;;;;;;;;;;;;;;;;;5053534;28;20311;-43
2023/03/07 07:27:40;;;;;;;;;;;;;;;;;;5050736;28;20012;-44
2023/03/07 07:30:06;;;;;;;;;;;;;;;;;;5050748;28;20359;-42
2023/03/07 07:32:31;;;;;;;;;;;;;;;;;;5053458;28;19916;-42
2023/03/07 07:34:57;;;;;;;;;;;;;;;;;;5054678;28;19951;-42
2023/03/07 07:37:23;;;;;;;;;;;;;;;;;;5052920;28;20261;-43
2023/03/07 07:39:49;;;;;;;;;;;;;;;;;;5054352;28;19905;-44
2023/03/07 07:42:17;;;;;;;;;;;;;;;;;;5052960;28;19916;-43
2023/03/07 07:44:42;;;;;;;;;;;;;;;;;;5049565;28;19905;-42
2023/03/07 07:47:08;;;;;;;;;;;;;;;;;;5051294;28;19940;-47
2023/03/07 07:49:34;;;;;;;;;;;;;;;;;;5049371;28;20015;-43
2023/03/07 07:52:00;;;;;;;;;;;;;;;;;;5053706;28;20379;-42
2023/03/07 07:54:26;;;;;;;;;;;;;;;;;;5052436;28;19904;-44
2023/03/07 07:56:52;;;;;;;;;;;;;;;;;;5053990;28;19915;-43
2023/03/07 07:59:18;;;;;;;;;;;;;;;;;;5052908;28;20263;-42
2023/03/07 08:01:44;;;;;;;;;;;;;;;;;;5053924;28;19916;-42
2023/03/07 08:04:10;;;;;;;;;;;;;;;;;;5053222;28;19931;-45
2023/03/07 08:06:36;;;;;;;;;;;;;;;;;;5052998;28;19908;-42
2023/03/07 08:09:04;;;;;;;;;;;;;;;;;;5053572;28;19909;-42
2023/03/07 08:11:30;;;;;;;;;;;;;;;;;;5047798;28;20478;-42
2023/03/07 08:13:56;;;;;;;;;;;;;;;;;;5048011;28;19915;-41
2023/03/07 08:16:22;;;;;;;;;;;;;;;;;;5052427;28;19920;-45
2023/03/07 08:18:48;;;;;;;;;;;;;;;;;;5042115;28;19913;-42
2023/03/07 08:21:13;;;;;;;;;;;;;;;;;;5048495;28;19909;-43
2023/03/07 08:23:39;;;;;;;;;;;;;;;;;;5051433;28;19992;-42
2023/03/07 08:26:05;;;;;;;;;;;;;;;;;;5052427;28;19905;-42
2023/03/07 08:28:31;;;;;;;;;;;;;;;;;;5053122;28;19904;-42
2023/03/07 08:30:57;;;;;;;;;;;;;;;;;;5049921;28;20383;-42
2023/03/07 08:33:23;;;;;;;;;;;;;;;;;;5050308;28;19920;-42
2023/03/07 08:35:49;;;;;;;;;;;;;;;;;;5052391;28;19911;-42
2023/03/07 08:38:15;;;;;;;;;;;;;;;;;;5050790;28;20421;-42
2023/03/07 08:40:40;;;;;;;;;;;;;;;;;;5051228;28;19920;-45
2023/03/07 08:43:06;;;;;;;;;;;;;;;;;;5052824;28;19908;-43
2023/03/07 08:45:32;;;;;;;;;;;;;;;;;;5054008;28;19909;-42
2023/03/07 08:47:58;;;;;;;;;;;;;;;;;;5066754;28;20315;-42
2023/03/07 08:50:24;;;;;;;;;;;;;;;;;;5071311;28;19916;-43
2023/03/07 08:52:50;;;;;;;;;;;;;;;;;;5072610;28;20106;-42
2023/03/07 08:55:16;;;;;;;;;;;;;;;;;;5059735;28;19923;-42
2023/03/07 08:57:42;;;;;;;;;;;;;;;;;;5071520;28;19909;-42
2023/03/07 09:00:08;;;;;;;;;;;;;;;;;;5072995;28;19991;-42
2023/03/07 09:02:34;;;;;;;;;;;;;;;;;;5071740;28;20003;-42
2023/03/07 09:05:00;;;;;;;;;;;;;;;;;;5072173;28;20437;-42
2023/03/07 09:07:26;;;;;;;;;;;;;;;;;;5071703;28;19909;-42
2023/03/07 09:09:52;;;;;;;;;;;;;;;;;;5072153;28;19912;-43
2023/03/07 09:12:18;;;;;;;;;;;;;;;;;;5071242;28;19908;-42
2023/03/07 09:14:43;;;;;;;;;;;;;;;;;;5071994;28;20362;-42
2023/03/07 09:17:09;;;;;;;;;;;;;;;;;;5072469;28;19908;-43
2023/03/07 09:19:35;;;;;;;;;;;;;;;;;;5066986;28;19912;-42
2023/03/07 09:22:01;;;;;;;;;;;;;;;;;;5058323;28;19909;-42
2023/03/07 09:24:27;;;;;;;;;;;;;;;;;;5067551;28;19954;-42
2023/03/07 09:26:53;;;;;;;;;;;;;;;;;;5072336;28;19908;-42
2023/03/07 09:29:19;;;;;;;;;;;;;;;;;;5073781;28;19904;-43
2023/03/07 09:31:45;;;;;;;;;;;;;;;;;;5072431;28;20409;-45
2023/03/07 09:34:11;;;;;;;;;;;;;;;;;;5071895;28;19946;-44
2023/03/07 09:36:37;;;;;;;;;;;;;;;;;;5071506;28;19947;-45
2023/03/07 09:39:03;;;;;;;;;;;;;;;;;;5054261;28;19993;-42
2023/03/07 09:41:30;;;;;;;;;;;;;;;;;;5071107;28;19946;-42
2023/03/07 09:43:56;;;;;;;;;;;;;;;;;;5071719;28;19951;-42
2023/03/07 09:46:22;;;;;;;;;;;;;;;;;;5069305;28;20310;-42
2023/03/07 09:48:48;;;;;;;;;;;;;;;;;;5051689;28;19999;-43
2023/03/07 09:51:14;;;;;;;;;;;;;;;;;;5050763;28;19962;-42
2023/03/07 09:53:39;;;;;;;;;;;;;;;;;;5052145;28;20123;-42
2023/03/07 09:56:05;;;;;;;;;;;;;;;;;;5051327;28;19951;-44
2023/03/07 09:58:31;;;;;;;;;;;;;;;;;;5050736;28;20486;-42
2023/03/07 10:00:59;;;;;;;;;;;;;;;;;;5051567;28;19909;-42
2023/03/07 10:03:25;;;;;;;;;;;;;;;;;;5050329;28;19905;-42
2023/03/07 10:05:51;;;;;;;;;;;;;;;;;;5051299;28;19904;-42
2023/03/07 10:08:17;;;;;;;;;;;;;;;;;;5050879;28;19905;-42
2023/03/07 10:10:43;;;;;;;;;;;;;;;;;;5051284;28;20355;-42
2023/03/07 10:13:09;;;;;;;;;;;;;;;;;;5051779;28;20339;-42
2023/03/07 10:15:35;;;;;;;;;;;;;;;;;;5050593;28;19971;-42
2023/03/07 10:18:00;;;;;;;;;;;;;;;;;;5050837;28;19916;-43
2023/03/07 10:20:26;;;;;;;;;;;;;;;;;;5048921;28;20003;-42
2023/03/07 10:22:52;;;;;;;;;;;;;;;;;;5035683;28;19906;-42
2023/03/07 10:25:18;;;;;;;;;;;;;;;;;;5050383;28;20355;-42
2023/03/07 10:27:44;;;;;;;;;;;;;;;;;;5051384;28;19905;-44
2023/03/07 10:30:10;;;;;;;;;;;;;;;;;;5054141;28;19916;-43
2023/03/07 10:32:36;;;;;;;;;;;;;;;;;;5051376;28;20000;-42
2023/03/07 10:35:03;;;;;;;;;;;;;;;;;;5050723;28;19991;-43
2023/03/07 10:37:28;;;;;;;;;;;;;;;;;;5049807;28;19919;-42
2023/03/07 10:39:55;;;;;;;;;;;;;;;;;;5051023;28;19904;-42
2023/03/07 10:42:21;;;;;;;;;;;;;;;;;;5050710;28;19916;-42
2023/03/07 10:44:47;;;;;;;;;;;;;;;;;;5050912;28;19912;-44
2023/03/07 10:47:13;;;;;;;;;;;;;;;;;;5049993;28;19917;-42
2023/03/07 10:49:39;;;;;;;;;;;;;;;;;;5050243;28;20359;-42
2023/03/07 10:52:05;;;;;;;;;;;;;;;;;;5033262;28;19912;-42
2023/03/07 10:54:31;;;;;;;;;;;;;;;;;;5049428;28;19940;-43
2023/03/07 10:56:57;;;;;;;;;;;;;;;;;;5052730;28;19911;-42
2023/03/07 10:59:23;;;;;;;;;;;;;;;;;;5059584;28;20329;-42
2023/03/07 11:01:49;;;;;;;;;;;;;;;;;;5055265;28;20018;-43
2023/03/07 11:04:14;;;;;;;;;;;;;;;;;;5053952;28;19912;-42
2023/03/07 11:06:43;;;;;;;;;;;;;;;;;;5054942;28;20011;-42
2023/03/07 11:09:10;;;;;;;;;;;;;;;;;;5054943;28;19905;-43
2023/03/07 11:11:36;;;;;;;;;;;;;;;;;;5053455;28;19909;-42
2023/03/07 11:14:02;;;;;;;;;;;;;;;;;;5054991;28;20290;-42
2023/03/07 11:16:28;;;;;;;;;;;;;;;;;;5053507;28;19904;-43
2023/03/07 11:18:54;;;;;;;;;;;;;;;;;;5055251;28;19928;-43
2023/03/07 11:21:20;;;;;;;;;;;;;;;;;;5053508;28;19951;-43
2023/03/07 11:23:46;;;;;;;;;;;;;;;;;;5054851;28;20396;-42
2023/03/07 11:26:11;;;;;;;;;;;;;;;;;;5053552;28;19923;-44
2023/03/07 11:28:38;;;;;;;;;;;;;;;;;;5057122;28;19995;-43
2023/03/07 11:31:04;;;;;;;;;;;;;;;;;;5037438;28;20000;-43
2023/03/07 11:33:30;;;;;;;;;;;;;;;;;;5054062;28;20560;-43
2023/03/07 11:35:57;;;;;;;;;;;;;;;;;;5053951;28;19912;-44
2023/03/07 11:38:23;;;;;;;;;;;;;;;;;;5052451;28;19912;-43
2023/03/07 11:40:49;;;;;;;;;;;;;;;;;;5054146;28;19959;-43
2023/03/07 11:43:15;;;;;;;;;;;;;;;;;;5053569;28;20367;-45
2023/03/07 11:45:42;;;;;;;;;;;;;;;;;;5052984;28;19905;-43
2023/03/07 11:48:10;;;;;;;;;;;;;;;;;;5053516;28;19975;-43
2023/03/07 11:50:36;;;;;;;;;;;;;;;;;;5052710;28;19963;-45
2023/03/07 11:53:01;;;;;;;;;;;;;;;;;;5052483;28;19913;-45
2023/03/07 11:55:28;;;;;;;;;;;;;;;;;;5052294;28;19947;-44
2023/03/07 11:57:54;;;;;;;;;;;;;;;;;;5054056;28;19958;-43
2023/03/07 12:00:19;;;;;;;;;;;;;;;;;;5057990;28;19905;-46
2023/03/07 12:02:45;;;;;;;;;;;;;;;;;;5053065;28;20370;-44
2023/03/07 12:05:11;;;;;;;;;;;;;;;;;;5052726;28;19958;-45
2023/03/07 12:07:37;;;;;;;;;;;;;;;;;;5053853;28;19912;-41
2023/03/07 12:10:03;;;;;;;;;;;;;;;;;;5053132;28;19965;-40
2023/03/07 12:12:29;;;;;;;;;;;;;;;;;;5052725;28;20452;-41
2023/03/07 12:14:55;;;;;;;;;;;;;;;;;;5053483;28;19905;-45
2023/03/07 12:17:21;;;;;;;;;;;;;;;;;;5053050;28;20346;-43
2023/03/07 12:19:46;;;;;;;;;;;;;;;;;;5034599;28;19911;-43
2023/03/07 12:22:12;;;;;;;;;;;;;;;;;;5053125;28;19909;-44
2023/03/07 12:24:38;;;;;;;;;;;;;;;;;;5043930;28;19962;-43
2023/03/07 12:27:04;;;;;;;;;;;;;;;;;;5053587;28;19987;-43
2023/03/07 12:29:30;;;;;;;;;;;;;;;;;;5055822;28;20517;-46
2023/03/07 12:31:56;;;;;;;;;;;;;;;;;;5053336;28;19909;-44
2023/03/07 12:34:22;;;;;;;;;;;;;;;;;;5050857;28;19999;-45
2023/03/07 12:36:47;;;;;;;;;;;;;;;;;;5052217;28;19904;-46
2023/03/07 12:39:13;;;;;;;;;;;;;;;;;;5051360;28;20351;-42
2023/03/07 12:41:39;;;;;;;;;;;;;;;;;;5053589;28;19905;-43
2023/03/07 12:44:05;;;;;;;;;;;;;;;;;;5053312;28;19948;-44
2023/03/07 12:46:31;;;;;;;;;;;;;;;;;;5051825;28;20035;-43
2023/03/07 12:48:57;;;;;;;;;;;;;;;;;;5053489;28;19909;-44
2023/03/07 12:51:23;;;;;;;;;;;;;;;;;;5051792;28;19935;-43
2023/03/07 12:53:49;;;;;;;;;;;;;;;;;;5052411;28;20030;-44
2023/03/07 12:56:15;;;;;;;;;;;;;;;;;;5052015;28;20391;-45
2023/03/07 12:58:40;;;;;;;;;;;;;;;;;;5058545;28;19915;-44
2023/03/07 13:01:06;;;;;;;;;;;;;;;;;;5052185;28;19911;-43
2023/03/07 13:03:32;;;;;;;;;;;;;;;;;;5052104;28;19908;-43
2023/03/07 13:05:58;;;;;;;;;;;;;;;;;;5052571;28;19959;-44
2023/03/07 13:08:24;;;;;;;;;;;;;;;;;;5052504;28;19905;-43
2023/03/07 13:10:50;;;;;;;;;;;;;;;;;;5051356;28;20347;-44
2023/03/07 13:13:16;;;;;;;;;;;;;;;;;;5051997;28;19920;-44
2023/03/07 13:15:42;;;;;;;;;;;;;;;;;;5052411;28;19905;-43
2023/03/07 13:18:08;;;;;;;;;;;;;;;;;;5052521;28;19904;-44
2023/03/07 13:20:34;;;;;;;;;;;;;;;;;;5051147;28;19991;-40
2023/03/07 13:23:00;;;;;;;;;;;;;;;;;;5052495;28;19912;-44
2023/03/07 13:25:26;;;;;;;;;;;;;;;;;;5051060;28;20003;-43
2023/03/07 13:27:51;;;;;;;;;;;;;;;;;;5051763;28;19904;-43
2023/03/07 13:30:18;;;;;;;;;;;;;;;;;;5054552;28;19908;-43
2023/03/07 13:32:43;;;;;;;;;;;;;;;;;;5052197;28;20431;-43
2023/03/07 13:35:09;;;;;;;;;;;;;;;;;;5051521;28;19940;-44
2023/03/07 13:37:35;;;;;;;;;;;;;;;;;;5051406;28;19912;-45
2023/03/07 13:40:04;;;;;;;;;;;;;;;;;;5051436;28;19912;-43
2023/03/07 13:42:30;;;;;;;;;;;;;;;;;;5050990;28;20542;-43
2023/03/07 13:44:56;;;;;;;;;;;;;;;;;;5050874;28;19904;-43
2023/03/07 13:47:21;;;;;;;;;;;;;;;;;;5051122;28;20014;-43
2023/03/07 13:49:47;;;;;;;;;;;;;;;;;;5051271;28;20393;-43
2023/03/07 13:52:13;;;;;;;;;;;;;;;;;;5051392;28;19909;-45
2023/03/07 13:54:39;;;;;;;;;;;;;;;;;;5051321;28;19916;-44
2023/03/07 13:57:05;;;;;;;;;;;;;;;;;;5051168;28;19913;-42
2023/03/07 13:59:31;;;;;;;;;;;;;;;;;;5063744;28;19909;-44
2023/03/07 14:01:57;;;;;;;;;;;;;;;;;;5042976;28;19936;-43
2023/03/07 14:04:23;;;;;;;;;;;;;;;;;;5061770;28;19923;-44
2023/03/07 14:06:49;;;;;;;;;;;;;;;;;;5053917;28;20355;-44
2023/03/07 14:09:15;;;;;;;;;;;;;;;;;;5050369;28;19912;-43
2023/03/07 14:11:41;;;;;;;;;;;;;;;;;;5051531;28;19919;-43
2023/03/07 14:14:07;;;;;;;;;;;;;;;;;;5051878;28;20290;-44
2023/03/07 14:16:33;;;;;;;;;;;;;;;;;;5063332;28;19961;-45
2023/03/07 14:18:59;;;;;;;;;;;;;;;;;;5051034;28;19913;-44
2023/03/07 14:21:25;;;;;;;;;;;;;;;;;;5050612;28;20003;-45
2023/03/07 14:23:51;;;;;;;;;;;;;;;;;;5051670;28;19916;-45
2023/03/07 14:26:17;;;;;;;;;;;;;;;;;;5050411;28;19904;-42
2023/03/07 14:28:43;;;;;;;;;;;;;;;;;;5066471;28;19912;-43
2023/03/07 14:31:09;;;;;;;;;;;;;;;;;;5051375;28;19915;-44
2023/03/07 14:33:35;;;;;;;;;;;;;;;;;;5054673;28;19913;-43
2023/03/07 14:36:01;;;;;;;;;;;;;;;;;;5037415;28;19942;-47
2023/03/07 14:38:27;;;;;;;;;;;;;;;;;;5054925;28;19952;-44
2023/03/07 14:40:52;;;;;;;;;;;;;;;;;;5054619;28;19920;-43
2023/03/07 14:43:18;;;;;;;;;;;;;;;;;;5055011;28;20371;-43
2023/03/07 14:45:44;;;;;;;;;;;;;;;;;;5055027;28;19909;-46
2023/03/07 14:48:10;;;;;;;;;;;;;;;;;;5070379;28;20271;-44
2023/03/07 14:50:42;;;;;;;;;;;;;;;;;;5073908;28;20256;-44
2023/03/07 14:53:09;;;;;;;;;;;;;;;;;;5059621;28;19908;-43
2023/03/07 14:55:35;;;;;;;;;;;;;;;;;;5074189;28;20362;-45
2023/03/07 14:58:01;;;;;;;;;;;;;;;;;;5075337;28;19908;-45
2023/03/07 15:00:31;;;;;;;;;;;;;;;;;;5074088;28;19908;-44
2023/03/07 15:02:57;;;;;;;;;;;;;;;;;;5074878;28;19909;-44
2023/03/07 15:05:23;;;;;;;;;;;;;;;;;;5074229;28;19905;-43
2023/03/07 15:07:50;;;;;;;;;;;;;;;;;;5073927;28;20347;-44
2023/03/07 15:10:16;;;;;;;;;;;;;;;;;;5073885;28;19951;-42
2023/03/07 15:12:41;;;;;;;;;;;;;;;;;;5074856;28;19944;-45
2023/03/07 15:15:08;;;;;;;;;;;;;;;;;;5074582;28;20331;-43
2023/03/07 15:17:34;;;;;;;;;;;;;;;;;;5074381;28;19937;-40
2023/03/07 15:20:00;;;;;;;;;;;;;;;;;;5074182;28;19916;-43
2023/03/07 15:22:26;;;;;;;;;;;;;;;;;;5074456;28;19905;-47
2023/03/07 15:24:52;;;;;;;;;;;;;;;;;;5072909;28;19912;-43
2023/03/07 15:27:18;;;;;;;;;;;;;;;;;;5074367;28;19912;-43
2023/03/07 15:29:44;;;;;;;;;;;;;;;;;;5077241;28;19908;-45
2023/03/07 15:32:10;;;;;;;;;;;;;;;;;;5074363;28;20007;-43
2023/03/07 15:34:36;;;;;;;;;;;;;;;;;;5073848;28;20270;-43
2023/03/07 15:37:02;;;;;;;;;;;;;;;;;;5074314;28;19909;-42
2023/03/07 15:39:28;;;;;;;;;;;;;;;;;;5054895;28;20374;-43
2023/03/07 15:41:53;;;;;;;;;;;;;;;;;;5072831;28;19908;-42
2023/03/07 15:44:20;;;;;;;;;;;;;;;;;;5072903;28;19934;-44
2023/03/07 15:46:46;;;;;;;;;;;;;;;;;;5074067;28;19916;-44
2023/03/07 15:49:11;;;;;;;;;;;;;;;;;;5073735;28;19910;-44
2023/03/07 15:51:37;;;;;;;;;;;;;;;;;;5073155;28;19931;-42
2023/03/07 15:54:10;;;;;;;;;;;;;;;;;;5074351;28;19919;-41
2023/03/07 15:56:36;;;;;;;;;;;;;;;;;;5071259;28;19908;-43
2023/03/07 15:59:02;;;;;;;;;;;;;;;;;;5068617;28;20274;-43
2023/03/07 16:01:28;;;;;;;;;;;;;;;;;;5073028;28;19904;-43
2023/03/07 16:03:54;;;;;;;;;;;;;;;;;;5074024;28;19908;-44
2023/03/07 16:06:20;;;;;;;;;;;;;;;;;;5072679;28;20409;-44
2023/03/07 16:08:46;;;;;;;;;;;;;;;;;;5073725;28;19905;-44
2023/03/07 16:11:11;;;;;;;;;;;;;;;;;;5072737;28;19909;-44
2023/03/07 16:13:37;;;;;;;;;;;;;;;;;;5073885;28;19970;-43
2023/03/07 16:16:03;;;;;;;;;;;;;;;;;;5072320;28;19909;-45
2023/03/07 16:18:29;;;;;;;;;;;;;;;;;;5073094;28;20665;-47
2023/03/07 16:20:55;;;;;;;;;;;;;;;;;;5072985;28;20359;-44
2023/03/07 16:23:21;;;;;;;;;;;;;;;;;;5072929;28;19904;-43
2023/03/07 16:25:47;;;;;;;;;;;;;;;;;;5073271;28;19950;-46
2023/03/07 16:28:13;;;;;;;;;;;;;;;;;;5073089;28;19951;-44
2023/03/07 16:30:38;;;;;;;;;;;;;;;;;;5076671;28;19915;-45
2023/03/07 16:33:04;;;;;;;;;;;;;;;;;;5057452;28;19915;-43
2023/03/07 16:35:30;;;;;;;;;;;;;;;;;;5072188;28;20465;-45
2023/03/07 16:37:56;;;;;;;;;;;;;;;;;;5073522;28;19905;-43